sensor_id;sensor_type;location;lat;lon;timestamp;temperature;humidity
47090;DHT22;32840;52.516;13.294;2023-02-15T00:00:54;6.00;99.90
47090;DHT22;32840;52.516;13.294;2023-02-15T00:03:39;6.00;99.90
47090;DHT22;32840;52.516;13.294;2023-02-15T00:06:24;6.00;99.90
47090;DHT22;32840;52.516;13.294;2023-02-15T00:09:10;6.00;99.90
47090;DHT22;32840;52.516;13.294;2023-02-15T00:11:55;6.00;99.90
47090;DHT22;32840;52.516;13.294;2023-02-15T00:14:40;5.90;99.90
47090;DHT22;32840;52.516;13.294;2023-02-15T00:17:27;6.00;99.90
47090;DHT22;32840;52.516;13.294;2023-02-15T00:20:12;6.00;99.90
47090;DHT22;32840;52.516;13.294;2023-02-15T00:22:58;6.00;99.90
47090;DHT22;32840;52.516;13.294;2023-02-15T00:25:43;5.90;99.90
47090;DHT22;32840;52.516;13.294;2023-02-15T00:28:27;5.80;99.90
47090;DHT22;32840;52.516;13.294;2023-02-15T00:31:12;5.80;99.90
47090;DHT22;32840;52.516;13.294;2023-02-15T00:34:02;5.70;99.90
47090;DHT22;32840;52.516;13.294;2023-02-15T00:36:47;5.70;99.90
47090;DHT22;32840;52.516;13.294;2023-02-15T00:39:32;5.70;99.90
47090;DHT22;32840;52.516;13.294;2023-02-15T00:42:18;5.70;99.90
47090;DHT22;32840;52.516;13.294;2023-02-15T00:45:02;5.60;99.90
47090;DHT22;32840;52.516;13.294;2023-02-15T00:47:47;5.70;99.90
47090;DHT22;32840;52.516;13.294;2023-02-15T00:50:32;5.70;99.90
47090;DHT22;32840;52.516;13.294;2023-02-15T00:53:17;5.70;99.90
47090;DHT22;32840;52.516;13.294;2023-02-15T00:56:02;5.70;99.90
47090;DHT22;32840;52.516;13.294;2023-02-15T00:58:47;5.70;99.90
47090;DHT22;32840;52.516;13.294;2023-02-15T01:01:33;5.60;99.90
47090;DHT22;32840;52.516;13.294;2023-02-15T01:04:18;5.60;99.90
47090;DHT22;32840;52.516;13.294;2023-02-15T01:07:03;5.60;99.90
47090;DHT22;32840;52.516;13.294;2023-02-15T01:09:48;5.60;99.90
47090;DHT22;32840;52.516;13.294;2023-02-15T01:12:33;5.60;99.90
47090;DHT22;32840;52.516;13.294;2023-02-15T01:15:18;5.60;99.90
47090;DHT22;32840;52.516;13.294;2023-02-15T01:18:03;5.60;99.90
47090;DHT22;32840;52.516;13.294;2023-02-15T01:20:48;5.60;99.90
47090;DHT22;32840;52.516;13.294;2023-02-15T01:23:34;5.60;99.90
47090;DHT22;32840;52.516;13.294;2023-02-15T01:26:19;5.60;99.90
47090;DHT22;32840;52.516;13.294;2023-02-15T01:29:04;5.60;99.90
47090;DHT22;32840;52.516;13.294;2023-02-15T01:31:49;5.60;99.90
47090;DHT22;32840;52.516;13.294;2023-02-15T01:34:33;5.60;99.90
47090;DHT22;32840;52.516;13.294;2023-02-15T01:37:18;5.70;99.90
47090;DHT22;32840;52.516;13.294;2023-02-15T01:40:04;5.60;99.90
47090;DHT22;32840;52.516;13.294;2023-02-15T01:42:54;5.60;99.90
47090;DHT22;32840;52.516;13.294;2023-02-15T01:45:39;5.60;99.90
47090;DHT22;32840;52.516;13.294;2023-02-15T01:48:26;5.60;99.90
47090;DHT22;32840;52.516;13.294;2023-02-15T01:51:13;5.60;99.90
47090;DHT22;32840;52.516;13.294;2023-02-15T01:54:05;5.70;99.90
47090;DHT22;32840;52.516;13.294;2023-02-15T01:56:53;5.70;99.90
47090;DHT22;32840;52.516;13.294;2023-02-15T01:59:41;5.70;99.90
47090;DHT22;32840;52.516;13.294;2023-02-15T02:02:29;5.60;99.90
47090;DHT22;32840;52.516;13.294;2023-02-15T02:05:15;5.70;99.90
47090;DHT22;32840;52.516;13.294;2023-02-15T02:08:01;5.60;99.90
47090;DHT22;32840;52.516;13.294;2023-02-15T02:10:46;5.60;99.90
47090;DHT22;32840;52.516;13.294;2023-02-15T02:13:31;5.60;99.90
47090;DHT22;32840;52.516;13.294;2023-02-15T02:16:21;5.40;99.90
47090;DHT22;32840;52.516;13.294;2023-02-15T02:33:11;5.60;99.90
47090;DHT22;32840;52.516;13.294;2023-02-15T02:35:56;5.40;99.90
47090;DHT22;32840;52.516;13.294;2023-02-15T02:39:02;5.50;99.90
47090;DHT22;32840;52.516;13.294;2023-02-15T02:42:01;5.40;99.90
47090;DHT22;32840;52.516;13.294;2023-02-15T02:44:49;5.40;99.90
47090;DHT22;32840;52.516;13.294;2023-02-15T02:47:44;5.40;99.90
47090;DHT22;32840;52.516;13.294;2023-02-15T02:50:32;5.30;99.90
47090;DHT22;32840;52.516;13.294;2023-02-15T02:53:16;5.20;99.90
47090;DHT22;32840;52.516;13.294;2023-02-15T02:56:32;5.20;99.90
47090;DHT22;32840;52.516;13.294;2023-02-15T02:59:23;5.10;99.90
47090;DHT22;32840;52.516;13.294;2023-02-15T03:02:17;5.10;99.90
47090;DHT22;32840;52.516;13.294;2023-02-15T03:05:13;5.10;99.90
47090;DHT22;32840;52.516;13.294;2023-02-15T03:08:02;5.20;99.90
47090;DHT22;32840;52.516;13.294;2023-02-15T03:10:53;5.20;99.90
47090;DHT22;32840;52.516;13.294;2023-02-15T03:13:40;5.10;99.90
47090;DHT22;32840;52.516;13.294;2023-02-15T03:16:27;5.10;99.90
47090;DHT22;32840;52.516;13.294;2023-02-15T03:19:16;5.00;99.90
47090;DHT22;32840;52.516;13.294;2023-02-15T03:22:08;4.90;99.90
47090;DHT22;32840;52.516;13.294;2023-02-15T03:28:20;4.90;99.90
47090;DHT22;32840;52.516;13.294;2023-02-15T03:31:08;4.90;99.90
47090;DHT22;32840;52.516;13.294;2023-02-15T03:33:59;5.00;99.90
47090;DHT22;32840;52.516;13.294;2023-02-15T03:39:59;5.00;99.90
47090;DHT22;32840;52.516;13.294;2023-02-15T03:43:30;5.00;99.90
47090;DHT22;32840;52.516;13.294;2023-02-15T03:46:24;4.90;99.90
47090;DHT22;32840;52.516;13.294;2023-02-15T03:49:42;4.90;99.90
47090;DHT22;32840;52.516;13.294;2023-02-15T03:52:29;4.90;99.90
47090;DHT22;32840;52.516;13.294;2023-02-15T03:55:16;4.80;99.90
47090;DHT22;32840;52.516;13.294;2023-02-15T03:58:01;4.70;99.90
47090;DHT22;32840;52.516;13.294;2023-02-15T04:01:13;4.60;99.90
47090;DHT22;32840;52.516;13.294;2023-02-15T04:04:21;4.60;99.90
47090;DHT22;32840;52.516;13.294;2023-02-15T04:07:08;4.60;99.90
47090;DHT22;32840;52.516;13.294;2023-02-15T04:09:52;4.50;99.90
47090;DHT22;32840;52.516;13.294;2023-02-15T04:12:57;4.40;99.90
47090;DHT22;32840;52.516;13.294;2023-02-15T04:15:45;4.40;99.90
47090;DHT22;32840;52.516;13.294;2023-02-15T04:18:48;4.40;99.90
47090;DHT22;32840;52.516;13.294;2023-02-15T04:21:51;4.50;99.90
47090;DHT22;32840;52.516;13.294;2023-02-15T04:24:58;4.60;99.90
47090;DHT22;32840;52.516;13.294;2023-02-15T04:28:01;4.50;99.90
47090;DHT22;32840;52.516;13.294;2023-02-15T04:30:46;4.40;99.90
47090;DHT22;32840;52.516;13.294;2023-02-15T04:33:31;4.40;99.90
47090;DHT22;32840;52.516;13.294;2023-02-15T04:36:16;4.30;99.90
47090;DHT22;32840;52.516;13.294;2023-02-15T04:39:01;4.20;99.90
47090;DHT22;32840;52.516;13.294;2023-02-15T04:41:46;4.20;99.90
47090;DHT22;32840;52.516;13.294;2023-02-15T04:44:32;4.10;99.90
47090;DHT22;32840;52.516;13.294;2023-02-15T04:47:16;4.10;99.90
47090;DHT22;32840;52.516;13.294;2023-02-15T04:50:02;4.00;99.90
47090;DHT22;32840;52.516;13.294;2023-02-15T04:52:53;4.00;99.90
47090;DHT22;32840;52.516;13.294;2023-02-15T04:55:38;4.00;99.90
47090;DHT22;32840;52.516;13.294;2023-02-15T04:58:23;4.00;99.90
47090;DHT22;32840;52.516;13.294;2023-02-15T05:01:08;3.90;99.90
47090;DHT22;32840;52.516;13.294;2023-02-15T05:03:54;3.90;99.90
47090;DHT22;32840;52.516;13.294;2023-02-15T05:06:44;3.90;99.90
47090;DHT22;32840;52.516;13.294;2023-02-15T05:09:28;4.00;99.90
47090;DHT22;32840;52.516;13.294;2023-02-15T05:12:13;3.90;99.90
47090;DHT22;32840;52.516;13.294;2023-02-15T05:14:58;4.00;99.90
47090;DHT22;32840;52.516;13.294;2023-02-15T05:17:43;4.00;99.90
47090;DHT22;32840;52.516;13.294;2023-02-15T05:20:28;4.10;99.90
47090;DHT22;32840;52.516;13.294;2023-02-15T05:23:13;4.10;99.90
47090;DHT22;32840;52.516;13.294;2023-02-15T05:26:01;4.10;99.90
47090;DHT22;32840;52.516;13.294;2023-02-15T05:29:05;4.00;99.90
47090;DHT22;32840;52.516;13.294;2023-02-15T05:31:50;3.90;99.90
47090;DHT22;32840;52.516;13.294;2023-02-15T05:34:36;3.80;99.90
47090;DHT22;32840;52.516;13.294;2023-02-15T05:37:20;3.80;99.90
47090;DHT22;32840;52.516;13.294;2023-02-15T05:40:06;3.70;99.90
47090;DHT22;32840;52.516;13.294;2023-02-15T05:42:52;3.60;99.90
47090;DHT22;32840;52.516;13.294;2023-02-15T05:45:36;3.70;99.90
47090;DHT22;32840;52.516;13.294;2023-02-15T05:48:23;3.70;99.90
47090;DHT22;32840;52.516;13.294;2023-02-15T05:51:12;3.70;99.90
47090;DHT22;32840;52.516;13.294;2023-02-15T05:54:01;3.70;99.90
47090;DHT22;32840;52.516;13.294;2023-02-15T05:56:49;3.70;99.90
47090;DHT22;32840;52.516;13.294;2023-02-15T05:59:35;3.70;99.90
47090;DHT22;32840;52.516;13.294;2023-02-15T06:02:20;3.70;99.90
47090;DHT22;32840;52.516;13.294;2023-02-15T06:05:07;3.70;99.90
47090;DHT22;32840;52.516;13.294;2023-02-15T06:07:51;3.60;99.90
47090;DHT22;32840;52.516;13.294;2023-02-15T06:10:40;3.60;99.90
47090;DHT22;32840;52.516;13.294;2023-02-15T06:13:32;3.50;99.90
47090;DHT22;32840;52.516;13.294;2023-02-15T06:16:22;3.70;99.90
47090;DHT22;32840;52.516;13.294;2023-02-15T06:19:08;3.70;99.90
47090;DHT22;32840;52.516;13.294;2023-02-15T06:21:53;3.60;99.90
47090;DHT22;32840;52.516;13.294;2023-02-15T06:24:38;3.60;99.90
47090;DHT22;32840;52.516;13.294;2023-02-15T06:27:23;3.70;99.90
47090;DHT22;32840;52.516;13.294;2023-02-15T06:30:10;3.70;99.90
47090;DHT22;32840;52.516;13.294;2023-02-15T06:32:55;3.70;99.90
47090;DHT22;32840;52.516;13.294;2023-02-15T06:35:40;3.60;99.90
47090;DHT22;32840;52.516;13.294;2023-02-15T06:38:25;3.60;99.90
47090;DHT22;32840;52.516;13.294;2023-02-15T06:41:10;3.60;99.90
47090;DHT22;32840;52.516;13.294;2023-02-15T06:43:54;3.60;99.90
47090;DHT22;32840;52.516;13.294;2023-02-15T06:46:40;3.60;99.90
47090;DHT22;32840;52.516;13.294;2023-02-15T06:49:24;3.40;99.90
47090;DHT22;32840;52.516;13.294;2023-02-15T06:52:09;3.40;99.90
47090;DHT22;32840;52.516;13.294;2023-02-15T06:54:55;3.30;99.90
47090;DHT22;32840;52.516;13.294;2023-02-15T06:57:40;3.40;99.90
47090;DHT22;32840;52.516;13.294;2023-02-15T07:00:25;3.40;99.90
47090;DHT22;32840;52.516;13.294;2023-02-15T07:03:13;3.50;99.90
47090;DHT22;32840;52.516;13.294;2023-02-15T07:06:00;3.60;99.90
47090;DHT22;32840;52.516;13.294;2023-02-15T07:08:46;3.60;99.90
47090;DHT22;32840;52.516;13.294;2023-02-15T07:11:31;3.50;99.90
47090;DHT22;32840;52.516;13.294;2023-02-15T07:14:35;3.60;99.90
47090;DHT22;32840;52.516;13.294;2023-02-15T07:17:22;3.60;99.90
47090;DHT22;32840;52.516;13.294;2023-02-15T07:20:16;3.70;99.90
47090;DHT22;32840;52.516;13.294;2023-02-15T07:23:02;3.70;99.90
47090;DHT22;32840;52.516;13.294;2023-02-15T07:25:47;3.70;99.90
47090;DHT22;32840;52.516;13.294;2023-02-15T07:28:35;3.80;99.90
47090;DHT22;32840;52.516;13.294;2023-02-15T07:31:20;3.90;99.90
47090;DHT22;32840;52.516;13.294;2023-02-15T07:34:06;3.80;99.90
47090;DHT22;32840;52.516;13.294;2023-02-15T07:36:55;3.80;99.90
47090;DHT22;32840;52.516;13.294;2023-02-15T07:39:40;3.80;99.90
47090;DHT22;32840;52.516;13.294;2023-02-15T07:42:25;3.90;99.90
47090;DHT22;32840;52.516;13.294;2023-02-15T07:45:09;3.90;99.90
47090;DHT22;32840;52.516;13.294;2023-02-15T07:47:55;4.00;99.90
47090;DHT22;32840;52.516;13.294;2023-02-15T07:50:41;4.10;99.90
47090;DHT22;32840;52.516;13.294;2023-02-15T07:53:26;4.20;99.90
47090;DHT22;32840;52.516;13.294;2023-02-15T07:56:14;4.20;99.90
47090;DHT22;32840;52.516;13.294;2023-02-15T07:58:59;4.10;99.90
47090;DHT22;32840;52.516;13.294;2023-02-15T08:01:47;4.00;99.90
47090;DHT22;32840;52.516;13.294;2023-02-15T08:04:32;3.90;99.90
47090;DHT22;32840;52.516;13.294;2023-02-15T08:07:17;4.00;99.90
47090;DHT22;32840;52.516;13.294;2023-02-15T08:10:01;4.00;99.90
47090;DHT22;32840;52.516;13.294;2023-02-15T08:12:46;4.00;99.90
47090;DHT22;32840;52.516;13.294;2023-02-15T08:15:32;4.10;99.90
47090;DHT22;32840;52.516;13.294;2023-02-15T08:18:17;4.00;99.90
47090;DHT22;32840;52.516;13.294;2023-02-15T08:21:04;4.00;99.90
47090;DHT22;32840;52.516;13.294;2023-02-15T08:23:49;3.90;99.90
47090;DHT22;32840;52.516;13.294;2023-02-15T08:26:34;3.90;99.90
47090;DHT22;32840;52.516;13.294;2023-02-15T08:29:25;4.00;99.90
47090;DHT22;32840;52.516;13.294;2023-02-15T08:32:15;4.00;99.90
47090;DHT22;32840;52.516;13.294;2023-02-15T08:35:00;4.10;99.90
47090;DHT22;32840;52.516;13.294;2023-02-15T08:37:46;4.20;99.90
47090;DHT22;32840;52.516;13.294;2023-02-15T08:40:32;4.30;99.90
47090;DHT22;32840;52.516;13.294;2023-02-15T08:43:17;4.40;99.90
47090;DHT22;32840;52.516;13.294;2023-02-15T08:46:02;4.60;99.90
47090;DHT22;32840;52.516;13.294;2023-02-15T08:48:47;4.60;99.90
47090;DHT22;32840;52.516;13.294;2023-02-15T08:51:36;4.50;99.90
47090;DHT22;32840;52.516;13.294;2023-02-15T08:54:21;4.50;99.90
47090;DHT22;32840;52.516;13.294;2023-02-15T08:57:06;4.50;99.90
47090;DHT22;32840;52.516;13.294;2023-02-15T08:59:51;4.70;99.90
47090;DHT22;32840;52.516;13.294;2023-02-15T09:02:39;4.70;99.90
47090;DHT22;32840;52.516;13.294;2023-02-15T09:05:24;4.70;99.90
47090;DHT22;32840;52.516;13.294;2023-02-15T09:08:09;4.80;99.90
47090;DHT22;32840;52.516;13.294;2023-02-15T09:11:05;4.80;99.90
47090;DHT22;32840;52.516;13.294;2023-02-15T09:14:03;4.90;99.90
47090;DHT22;32840;52.516;13.294;2023-02-15T09:16:49;4.90;99.90
47090;DHT22;32840;52.516;13.294;2023-02-15T09:19:35;5.00;99.90
47090;DHT22;32840;52.516;13.294;2023-02-15T09:22:20;5.10;99.90
47090;DHT22;32840;52.516;13.294;2023-02-15T09:25:05;5.20;99.90
47090;DHT22;32840;52.516;13.294;2023-02-15T09:27:50;5.20;99.90
47090;DHT22;32840;52.516;13.294;2023-02-15T09:30:36;5.20;99.90
47090;DHT22;32840;52.516;13.294;2023-02-15T09:33:21;5.10;99.90
47090;DHT22;32840;52.516;13.294;2023-02-15T09:36:20;5.20;99.90
47090;DHT22;32840;52.516;13.294;2023-02-15T09:39:18;5.20;99.90
47090;DHT22;32840;52.516;13.294;2023-02-15T09:45:32;5.30;99.90
47090;DHT22;32840;52.516;13.294;2023-02-15T09:48:58;5.40;99.90
47090;DHT22;32840;52.516;13.294;2023-02-15T09:52:06;5.40;99.90
47090;DHT22;32840;52.516;13.294;2023-02-15T10:04:10;5.70;99.90
47090;DHT22;32840;52.516;13.294;2023-02-15T10:13:41;5.60;99.90
47090;DHT22;32840;52.516;13.294;2023-02-15T10:19:40;5.60;99.90
47090;DHT22;32840;52.516;13.294;2023-02-15T10:26:08;5.70;99.90
47090;DHT22;32840;52.516;13.294;2023-02-15T10:29:02;5.70;99.90
47090;DHT22;32840;52.516;13.294;2023-02-15T10:35:03;5.70;99.90
47090;DHT22;32840;52.516;13.294;2023-02-15T10:44:05;5.70;99.90
47090;DHT22;32840;52.516;13.294;2023-02-15T10:47:20;5.70;99.90
47090;DHT22;32840;52.516;13.294;2023-02-15T10:50:46;5.70;99.90
47090;DHT22;32840;52.516;13.294;2023-02-15T10:56:43;5.70;99.90
47090;DHT22;32840;52.516;13.294;2023-02-15T11:08:37;6.00;99.90
47090;DHT22;32840;52.516;13.294;2023-02-15T11:11:28;6.00;99.90
47090;DHT22;32840;52.516;13.294;2023-02-15T11:14:37;6.00;99.90
47090;DHT22;32840;52.516;13.294;2023-02-15T11:17:28;6.10;99.90
47090;DHT22;32840;52.516;13.294;2023-02-15T11:23:14;6.40;99.90
47090;DHT22;32840;52.516;13.294;2023-02-15T11:26:09;6.50;99.90
47090;DHT22;32840;52.516;13.294;2023-02-15T11:29:22;6.50;99.90
47090;DHT22;32840;52.516;13.294;2023-02-15T11:32:32;6.60;99.90
47090;DHT22;32840;52.516;13.294;2023-02-15T11:35:24;6.70;99.90
47090;DHT22;32840;52.516;13.294;2023-02-15T11:38:21;6.80;99.90
47090;DHT22;32840;52.516;13.294;2023-02-15T11:41:12;6.90;99.90
47090;DHT22;32840;52.516;13.294;2023-02-15T11:44:18;7.00;99.90
47090;DHT22;32840;52.516;13.294;2023-02-15T11:47:10;7.00;99.90
47090;DHT22;32840;52.516;13.294;2023-02-15T11:49:57;7.00;99.90
47090;DHT22;32840;52.516;13.294;2023-02-15T11:52:41;7.10;99.90
47090;DHT22;32840;52.516;13.294;2023-02-15T11:55:28;7.20;99.90
47090;DHT22;32840;52.516;13.294;2023-02-15T12:01:40;7.40;99.90
47090;DHT22;32840;52.516;13.294;2023-02-15T12:04:40;7.40;99.90
47090;DHT22;32840;52.516;13.294;2023-02-15T12:07:42;7.50;99.90
47090;DHT22;32840;52.516;13.294;2023-02-15T12:10:32;7.60;99.90
47090;DHT22;32840;52.516;13.294;2023-02-15T12:13:20;7.70;99.90
47090;DHT22;32840;52.516;13.294;2023-02-15T12:16:07;7.80;99.90
47090;DHT22;32840;52.516;13.294;2023-02-15T12:18:58;7.90;99.90
47090;DHT22;32840;52.516;13.294;2023-02-15T12:21:49;8.00;99.90
47090;DHT22;32840;52.516;13.294;2023-02-15T12:24:45;8.00;99.90
47090;DHT22;32840;52.516;13.294;2023-02-15T12:27:33;8.10;99.90
47090;DHT22;32840;52.516;13.294;2023-02-15T12:30:29;8.20;99.90
47090;DHT22;32840;52.516;13.294;2023-02-15T12:33:32;8.20;99.90
47090;DHT22;32840;52.516;13.294;2023-02-15T12:36:29;8.20;99.90
47090;DHT22;32840;52.516;13.294;2023-02-15T12:39:19;8.30;99.90
47090;DHT22;32840;52.516;13.294;2023-02-15T12:42:16;8.30;99.90
47090;DHT22;32840;52.516;13.294;2023-02-15T12:45:26;8.40;99.90
47090;DHT22;32840;52.516;13.294;2023-02-15T12:48:29;8.50;99.90
47090;DHT22;32840;52.516;13.294;2023-02-15T12:51:15;8.50;99.90
47090;DHT22;32840;52.516;13.294;2023-02-15T12:54:17;8.60;99.90
47090;DHT22;32840;52.516;13.294;2023-02-15T13:00:25;8.80;99.90
47090;DHT22;32840;52.516;13.294;2023-02-15T13:03:23;8.90;99.90
47090;DHT22;32840;52.516;13.294;2023-02-15T13:06:11;8.90;99.90
47090;DHT22;32840;52.516;13.294;2023-02-15T13:09:06;8.90;99.90
47090;DHT22;32840;52.516;13.294;2023-02-15T13:11:51;9.00;99.90
47090;DHT22;32840;52.516;13.294;2023-02-15T13:14:37;9.10;99.90
47090;DHT22;32840;52.516;13.294;2023-02-15T13:17:32;9.20;99.90
47090;DHT22;32840;52.516;13.294;2023-02-15T13:20:21;9.20;99.90
47090;DHT22;32840;52.516;13.294;2023-02-15T13:26:32;9.30;99.90
47090;DHT22;32840;52.516;13.294;2023-02-15T13:29:26;9.40;99.90
47090;DHT22;32840;52.516;13.294;2023-02-15T13:32:35;9.40;99.90
47090;DHT22;32840;52.516;13.294;2023-02-15T13:35:22;9.50;99.90
47090;DHT22;32840;52.516;13.294;2023-02-15T13:41:56;9.70;99.90
47090;DHT22;32840;52.516;13.294;2023-02-15T13:51:25;9.80;99.90
47090;DHT22;32840;52.516;13.294;2023-02-15T13:57:31;9.80;99.90
47090;DHT22;32840;52.516;13.294;2023-02-15T14:01:09;9.90;99.90
47090;DHT22;32840;52.516;13.294;2023-02-15T14:04:31;9.90;99.90
47090;DHT22;32840;52.516;13.294;2023-02-15T14:11:35;9.90;99.90
47090;DHT22;32840;52.516;13.294;2023-02-15T14:21:23;9.90;99.90
47090;DHT22;32840;52.516;13.294;2023-02-15T14:32:40;10.10;99.90
47090;DHT22;32840;52.516;13.294;2023-02-15T14:35:29;10.10;99.90
47090;DHT22;32840;52.516;13.294;2023-02-15T14:38:39;10.10;99.90
47090;DHT22;32840;52.516;13.294;2023-02-15T14:41:43;10.00;99.90
47090;DHT22;32840;52.516;13.294;2023-02-15T14:44:45;10.10;99.90
47090;DHT22;32840;52.516;13.294;2023-02-15T14:47:40;10.00;99.90
47090;DHT22;32840;52.516;13.294;2023-02-15T14:50:45;10.00;99.90
47090;DHT22;32840;52.516;13.294;2023-02-15T14:53:46;10.00;99.90
47090;DHT22;32840;52.516;13.294;2023-02-15T14:56:31;10.00;99.90
47090;DHT22;32840;52.516;13.294;2023-02-15T14:59:23;10.00;99.90
47090;DHT22;32840;52.516;13.294;2023-02-15T15:05:06;10.00;99.90
47090;DHT22;32840;52.516;13.294;2023-02-15T15:07:57;10.00;99.90
47090;DHT22;32840;52.516;13.294;2023-02-15T15:10:46;10.00;99.90
47090;DHT22;32840;52.516;13.294;2023-02-15T15:13:37;10.00;99.90
47090;DHT22;32840;52.516;13.294;2023-02-15T15:22:42;10.00;99.90
47090;DHT22;32840;52.516;13.294;2023-02-15T15:25:56;10.00;99.90
47090;DHT22;32840;52.516;13.294;2023-02-15T15:28:53;10.10;99.90
47090;DHT22;32840;52.516;13.294;2023-02-15T15:31:50;10.10;99.90
47090;DHT22;32840;52.516;13.294;2023-02-15T15:34:54;10.10;99.90
47090;DHT22;32840;52.516;13.294;2023-02-15T15:48:33;10.00;99.90
47090;DHT22;32840;52.516;13.294;2023-02-15T15:51:29;10.00;99.90
47090;DHT22;32840;52.516;13.294;2023-02-15T15:54:21;10.00;99.90
47090;DHT22;32840;52.516;13.294;2023-02-15T15:57:15;10.00;99.90
47090;DHT22;32840;52.516;13.294;2023-02-15T16:00:03;9.90;99.90
47090;DHT22;32840;52.516;13.294;2023-02-15T16:02:54;9.90;99.90
47090;DHT22;32840;52.516;13.294;2023-02-15T16:05:42;9.90;99.90
47090;DHT22;32840;52.516;13.294;2023-02-15T16:08:37;9.90;99.90
47090;DHT22;32840;52.516;13.294;2023-02-15T16:11:27;9.80;99.90
47090;DHT22;32840;52.516;13.294;2023-02-15T16:14:30;9.80;99.90
47090;DHT22;32840;52.516;13.294;2023-02-15T16:17:22;9.80;99.90
47090;DHT22;32840;52.516;13.294;2023-02-15T16:20:17;9.70;99.90
47090;DHT22;32840;52.516;13.294;2023-02-15T16:28:52;9.70;99.90
47090;DHT22;32840;52.516;13.294;2023-02-15T16:31:39;9.70;99.90
47090;DHT22;32840;52.516;13.294;2023-02-15T16:34:24;9.60;99.90
47090;DHT22;32840;52.516;13.294;2023-02-15T16:37:17;9.70;99.90
47090;DHT22;32840;52.516;13.294;2023-02-15T16:40:03;9.60;99.90
47090;DHT22;32840;52.516;13.294;2023-02-15T16:42:54;9.60;99.90
47090;DHT22;32840;52.516;13.294;2023-02-15T16:45:40;9.50;99.90
47090;DHT22;32840;52.516;13.294;2023-02-15T16:48:25;9.50;99.90
47090;DHT22;32840;52.516;13.294;2023-02-15T16:51:20;9.40;99.90
47090;DHT22;32840;52.516;13.294;2023-02-15T16:54:07;9.40;99.90
47090;DHT22;32840;52.516;13.294;2023-02-15T16:56:53;9.40;99.90
47090;DHT22;32840;52.516;13.294;2023-02-15T16:59:47;9.40;99.90
47090;DHT22;32840;52.516;13.294;2023-02-15T17:02:37;9.30;99.90
47090;DHT22;32840;52.516;13.294;2023-02-15T17:05:22;9.30;99.90
47090;DHT22;32840;52.516;13.294;2023-02-15T17:08:29;9.30;99.90
47090;DHT22;32840;52.516;13.294;2023-02-15T17:11:22;9.20;99.90
47090;DHT22;32840;52.516;13.294;2023-02-15T17:14:31;9.20;99.90
47090;DHT22;32840;52.516;13.294;2023-02-15T17:17:16;9.20;99.90
47090;DHT22;32840;52.516;13.294;2023-02-15T17:20:00;9.10;99.90
47090;DHT22;32840;52.516;13.294;2023-02-15T17:22:45;9.10;99.90
47090;DHT22;32840;52.516;13.294;2023-02-15T17:25:39;9.00;99.90
47090;DHT22;32840;52.516;13.294;2023-02-15T17:28:26;9.00;99.90
47090;DHT22;32840;52.516;13.294;2023-02-15T17:31:17;8.90;99.90
47090;DHT22;32840;52.516;13.294;2023-02-15T17:34:02;8.90;99.90
47090;DHT22;32840;52.516;13.294;2023-02-15T17:36:58;8.80;99.90
47090;DHT22;32840;52.516;13.294;2023-02-15T17:39:44;8.80;99.90
47090;DHT22;32840;52.516;13.294;2023-02-15T17:42:28;8.70;99.90
47090;DHT22;32840;52.516;13.294;2023-02-15T17:45:15;8.70;99.90
47090;DHT22;32840;52.516;13.294;2023-02-15T17:48:03;8.60;99.90
47090;DHT22;32840;52.516;13.294;2023-02-15T17:50:50;8.60;99.90
47090;DHT22;32840;52.516;13.294;2023-02-15T17:53:36;8.50;99.90
47090;DHT22;32840;52.516;13.294;2023-02-15T17:56:21;8.30;99.90
47090;DHT22;32840;52.516;13.294;2023-02-15T17:59:07;8.30;99.90
47090;DHT22;32840;52.516;13.294;2023-02-15T18:01:55;8.20;99.90
47090;DHT22;32840;52.516;13.294;2023-02-15T18:04:58;8.10;99.90
47090;DHT22;32840;52.516;13.294;2023-02-15T18:08:02;8.00;99.90
47090;DHT22;32840;52.516;13.294;2023-02-15T18:11:08;8.00;99.90
47090;DHT22;32840;52.516;13.294;2023-02-15T18:14:13;7.90;99.90
47090;DHT22;32840;52.516;13.294;2023-02-15T18:17:03;7.80;99.90
47090;DHT22;32840;52.516;13.294;2023-02-15T18:19:52;7.70;99.90
47090;DHT22;32840;52.516;13.294;2023-02-15T18:22:38;7.70;99.90
47090;DHT22;32840;52.516;13.294;2023-02-15T18:25:23;7.60;99.90
47090;DHT22;32840;52.516;13.294;2023-02-15T18:28:11;7.50;99.90
47090;DHT22;32840;52.516;13.294;2023-02-15T18:31:00;7.50;99.90
47090;DHT22;32840;52.516;13.294;2023-02-15T18:33:51;7.50;99.90
47090;DHT22;32840;52.516;13.294;2023-02-15T18:36:43;7.60;99.90
47090;DHT22;32840;52.516;13.294;2023-02-15T18:39:40;7.50;99.90
47090;DHT22;32840;52.516;13.294;2023-02-15T18:42:29;7.50;99.90
47090;DHT22;32840;52.516;13.294;2023-02-15T18:45:22;7.40;99.90
47090;DHT22;32840;52.516;13.294;2023-02-15T18:48:08;7.30;99.90
47090;DHT22;32840;52.516;13.294;2023-02-15T18:50:53;7.20;99.90
47090;DHT22;32840;52.516;13.294;2023-02-15T18:53:38;7.20;99.90
47090;DHT22;32840;52.516;13.294;2023-02-15T18:56:39;7.10;99.90
47090;DHT22;32840;52.516;13.294;2023-02-15T18:59:56;7.10;99.90
47090;DHT22;32840;52.516;13.294;2023-02-15T19:02:43;7.10;99.90
47090;DHT22;32840;52.516;13.294;2023-02-15T19:05:29;7.10;99.90
47090;DHT22;32840;52.516;13.294;2023-02-15T19:08:22;7.00;99.90
47090;DHT22;32840;52.516;13.294;2023-02-15T19:11:21;7.00;99.90
47090;DHT22;32840;52.516;13.294;2023-02-15T19:14:29;6.90;99.90
47090;DHT22;32840;52.516;13.294;2023-02-15T19:17:17;6.90;99.90
47090;DHT22;32840;52.516;13.294;2023-02-15T19:20:02;6.90;99.90
47090;DHT22;32840;52.516;13.294;2023-02-15T19:22:49;6.90;99.90
47090;DHT22;32840;52.516;13.294;2023-02-15T19:25:38;6.90;99.90
47090;DHT22;32840;52.516;13.294;2023-02-15T19:28:31;6.80;99.90
47090;DHT22;32840;52.516;13.294;2023-02-15T19:31:19;6.80;99.90
47090;DHT22;32840;52.516;13.294;2023-02-15T19:34:16;6.80;99.90
47090;DHT22;32840;52.516;13.294;2023-02-15T19:37:01;6.80;99.90
47090;DHT22;32840;52.516;13.294;2023-02-15T19:39:47;6.70;99.90
47090;DHT22;32840;52.516;13.294;2023-02-15T19:42:32;6.70;99.90
47090;DHT22;32840;52.516;13.294;2023-02-15T19:45:23;6.60;99.90
47090;DHT22;32840;52.516;13.294;2023-02-15T19:48:11;6.60;99.90
47090;DHT22;32840;52.516;13.294;2023-02-15T19:50:58;6.60;99.90
47090;DHT22;32840;52.516;13.294;2023-02-15T19:53:46;6.50;99.90
47090;DHT22;32840;52.516;13.294;2023-02-15T19:56:32;6.50;99.90
47090;DHT22;32840;52.516;13.294;2023-02-15T19:59:24;6.50;99.90
47090;DHT22;32840;52.516;13.294;2023-02-15T20:02:14;6.40;99.90
47090;DHT22;32840;52.516;13.294;2023-02-15T20:05:02;6.40;99.90
47090;DHT22;32840;52.516;13.294;2023-02-15T20:07:57;6.40;99.90
47090;DHT22;32840;52.516;13.294;2023-02-15T20:10:45;6.30;99.90
47090;DHT22;32840;52.516;13.294;2023-02-15T20:13:31;6.30;99.90
47090;DHT22;32840;52.516;13.294;2023-02-15T20:16:16;6.30;99.90